Beauty, KY (41203)

12:15 PM EDT on August 30, 2014 (GMT -0400)
Big Sandy Reg AP, Prestonsbur | Change Station
CLOSE
Current Station
Airport
Location: Big Sandy Reg AP, Prestonsbur,
Elevation: 1220 ft
Nearby Weather Stations

Elev 1220 ft 37.75 °N, 82.64 °W | Updated 20 minutes ago

Clear
Clear
85 °F
Feels Like 89 °F
N
8
Wind Variable Wind from South

Today
High -- | Low -- °F
--% Chance of Precip.
Yesterday
High -- | Low -- °F
Precip. -- in
6:58 AM 8:02 PM
Waxing Crescent, 23% visible
Pressure 30.15 in
Visibility 10.0 miles
Clouds Clear
Heat Index 89 °F
Dew Point 69 °F
Humidity 58%
Rainfall 0.00 in
Snow Depth Not available.
UV 8 out of 12
Pollen 10.40 out of 12
Air Quality Not available.
Flu Activity Not available.
METAR KSJS 301555Z AUTO 19007KT 10SM CLR 30/21 A3015 RMK AO2 T02960206

More Conditions Fewer Conditions

Pressure 30.15 in
Visibility 10.0 miles
Clouds Clear
Heat Index 89 °F
Dew Point 69 °F
Humidity 58%
Rainfall 0.00 in
Snow Depth Not available.
UV 8 out of 12
Pollen 10.40 out of 12
Air Quality Not available.
Flu Activity Not available.
METAR KSJS 301555Z AUTO 19007KT 10SM CLR 30/21 A3015 RMK AO2 T02960206

More Conditions Fewer Conditions

10-Day Weather Forecast

Almanac

Astronomy

Aug. 30, 2014 Rise Set
Actual Time 6:58 AM EDT 8:02 PM EDT
Civil Twilight 6:31 AM EDT 8:29 PM EDT
Nautical Twilight 5:59 AM EDT 9:01 PM EDT
Astronomical Twilight 5:26 AM EDT 9:34 PM EDT
Moon 11:39 AM EDT 10:42 PM EDT
Length of Visible Light 13h 57m
Length of Day
13h 03m
Tomorrow will be 2m 19s shorter.
Waxing Crescent, 23% of the Moon is Illuminated
Today
Waxing Crescent
Sep 2
First Quarter
Sep 8
Full
Sep 15
Last Quarter
Sep 24
New

Today's Extremes

State Highs State Lows

Community

WunderPhotos

Upload Photos

1,748,556 photos uploaded!

WunderBlogs® & News

Nearby

Snow Depth

Station Depth Elevation
No new snow has been reported.

Earthquake Activity

City Distance Mag. Time & Date
No recent earthquake activity has been reported nearby.
Minimum magnitude displayed is 2.5.

Coastal Water Temperatures

Place Temperature
No Stations Reporting

Nearby Weather Stations